logo dgac
Sábado 18 de Noviembre del 2017

Metar

Buscar por aerodromo o helipuerto
Ingrese nombre de aeródromo, localidad o designador OACI:


METAR del 18-11-2017 a las 14:00 UTC
METAR SBGL 181400Z 36004KT 9999 FEW025 BKN100 30/21 Q1007
Viento: dirección 360 grados, velocidad 4 nudos
Visibilidad: 10 km o más
Nubes: Escasa nubosidad a 2500 pies sobre el nivel del aeródromo
Nubes: Nublado a 10000 pies sobre el nivel del aeródromo
Temperatura: 30 °C
Rocío: 21 °C
Humedad_relativa: 59%
Presión: 1007 hPa
METAR del 18-11-2017 a las 14:00 UTC
METAR SBPA 181400Z 26005KT 150V220 9999 SCT017 BKN050 OVC080 24/20 Q1 006
Viento: dirección 260 grados, velocidad 5 nudos
Viento con dirección variable entre 150 y 220 grados
Visibilidad: 10 km o más
Nubes: Nubosidad parcial a 1700 pies sobre el nivel del aeródromo
Nubes: Nublado a 5000 pies sobre el nivel del aeródromo
Nubes: Cubierto a 8000 pies sobre el nivel del aeródromo
Temperatura: 24 °C
Rocío: 20 °C
Humedad_relativa: 78%
Nan: Q1
Nan: 006
METAR del 18-11-2017 a las 14:00 UTC
METAR SAEZ 181400Z 25011KT CAVOK 16/02 Q1012
Viento: dirección 250 grados, velocidad 11 nudos
Visibilidad: 10 km o más,
    sin nubes bajo los 5.000 pies o bajo del MSA (Mínimo de Seguridad del Aeródromo),
    sin cumulonimbus, y sin fenómenos de tiempo significativo en el aeródromo o alrededores
Temperatura: 16 °C
Rocío: 2 °C
Humedad_relativa: 39%
Presión: 1012 hPa
METAR del 18-11-2017 a las 14:00 UTC
METAR SASJ 181400Z 18019KT 7000 SCT035 OVC100 22/12 Q1016
Viento: dirección 180 grados, velocidad 19 nudos
Visibilidad: 7000 metros
Nubes: Nubosidad parcial a 3500 pies sobre el nivel del aeródromo
Nubes: Cubierto a 10000 pies sobre el nivel del aeródromo
Temperatura: 22 °C
Rocío: 12 °C
Humedad_relativa: 53%
Presión: 1016 hPa
METAR del 18-11-2017 a las 14:00 UTC
METAR SASA 181400Z 05013KT 9999 SCT015 BKN100 19/11 Q1017
Viento: dirección 050 grados, velocidad 13 nudos
Visibilidad: 10 km o más
Nubes: Nubosidad parcial a 1500 pies sobre el nivel del aeródromo
Nubes: Nublado a 10000 pies sobre el nivel del aeródromo
Temperatura: 19 °C
Rocío: 11 °C
Humedad_relativa: 60%
Presión: 1017 hPa
METAR del 18-11-2017 a las 14:00 UTC
METAR SPTN 181400Z 20004KT 140V310 CAVOK 20/13 Q1016 RMK PP000
Viento: dirección 200 grados, velocidad 4 nudos
Viento con dirección variable entre 140 y 310 grados
Visibilidad: 10 km o más,
    sin nubes bajo los 5.000 pies o bajo del MSA (Mínimo de Seguridad del Aeródromo),
    sin cumulonimbus, y sin fenómenos de tiempo significativo en el aeródromo o alrededores
Temperatura: 20 °C
Rocío: 13 °C
Humedad_relativa: 64%
Presión: 1016 hPa
Información adicional:
Nan: PP000
METAR del 18-11-2017 a las 14:00 UTC
METAR SPSO 181400Z 27005KT 5000 BR OVC018 19/16 Q1015 RMK BIRD HAZARD RWY 22/04 P000
Viento: dirección 270 grados, velocidad 5 nudos
Visibilidad: 5000 metros
Neblina
Nubes: Cubierto a 1800 pies sobre el nivel del aeródromo
Temperatura: 19 °C
Rocío: 16 °C
Humedad_relativa: 83%
Presión: 1015 hPa
Información adicional:
Nan: BIRD
Nan: HAZARD
Wind-shear: Pista
Temperatura: 22 °C
Rocío: 4 °C
Humedad_relativa: 31%
Nan: P000
METAR del 18-11-2017 a las 14:00 UTC
METAR SPJC 181400Z 17008KT 140V200 9999 FEW013 OVC019 20/15 Q1016 NOSIG RMK PP000
Viento: dirección 170 grados, velocidad 8 nudos
Viento con dirección variable entre 140 y 200 grados
Visibilidad: 10 km o más
Nubes: Escasa nubosidad a 1300 pies sobre el nivel del aeródromo
Nubes: Cubierto a 1900 pies sobre el nivel del aeródromo
Temperatura: 20 °C
Rocío: 15 °C
Humedad_relativa: 73%
Presión: 1016 hPa
No se esperan cambios significativos en las próximas 2 horas
Información adicional:
Nan: PP000
METAR del 18-11-2017 a las 14:00 UTC
METAR SGAS 181400Z 19016KT 140V220 CAVOK 27/17 Q1008
Viento: dirección 190 grados, velocidad 16 nudos
Viento con dirección variable entre 140 y 220 grados
Visibilidad: 10 km o más,
    sin nubes bajo los 5.000 pies o bajo del MSA (Mínimo de Seguridad del Aeródromo),
    sin cumulonimbus, y sin fenómenos de tiempo significativo en el aeródromo o alrededores
Temperatura: 27 °C
Rocío: 17 °C
Humedad_relativa: 54%
Presión: 1008 hPa
METAR del 18-11-2017 a las 14:00 UTC
METAR NTAA 181400Z AUTO VRB03KT 9999 FEW020/// OVC094/// 25/21 Q1011
Nan: AUTO
Viento: dirección variable, velocidad 3 nudos
Visibilidad: 10 km o más
Nan: FEW020///
Nan: OVC094///
Temperatura: 25 °C
Rocío: 21 °C
Humedad_relativa: 79%
Presión: 1011 hPa